UAL55 KSAN-KEWR
Flight info
| Callsign | UAL55 |
|---|---|
| Flight time | 4h 18m |
| Altitude | 35000 |
| Route | ZZOOO4 MTBAL LANCY DRK INW J44 RSK KD54Y OVR/N0451F370 DSM EVOTE NELLS KEEHO J584 SLT FQM3 |
| Aircraft | B763/H-SDE3FGHIM3RWXY/LB1 |
Departure
| Time | 2026-05-04 19:42 |
|---|---|
| Airport | San Diego International Airport (KSAN) |
Arrival
| Time | 2026-05-05 00:00 |
|---|---|
| Airport | Newark Liberty International Airport (KEWR) |
| Time | Latitude | Longitude | Altitude | Speed | Heading |
|---|---|---|---|---|---|
| 2026-05-04 19:18 | 32.73257 | -117.20541 | 34 ft | 0 kts | 167° |
| 2026-05-04 19:27 | 32.73259 | -117.20542 | 34 ft | 1 kts | 167° |
| 2026-05-04 19:27 | 32.73276 | -117.20546 | 33 ft | 3 kts | 167° |
| 2026-05-04 19:28 | 32.73294 | -117.20551 | 32 ft | 3 kts | 164° |
| 2026-05-04 19:28 | 32.73310 | -117.20560 | 33 ft | 3 kts | 141° |
| 2026-05-04 19:28 | 32.73321 | -117.20575 | 31 ft | 3 kts | 112° |
| 2026-05-04 19:28 | 32.73326 | -117.20597 | 31 ft | 3 kts | 95° |
| 2026-05-04 19:29 | 32.73327 | -117.20617 | 28 ft | 1 kts | 92° |
| 2026-05-04 19:29 | 32.73327 | -117.20623 | 29 ft | 0 kts | 92° |
| 2026-05-04 19:32 | 32.73327 | -117.20620 | 28 ft | 1 kts | 90° |
| 2026-05-04 19:32 | 32.73328 | -117.20606 | 30 ft | 3 kts | 78° |
| 2026-05-04 19:33 | 32.73345 | -117.20574 | 33 ft | 6 kts | 39° |
| 2026-05-04 19:33 | 32.73403 | -117.20552 | 32 ft | 11 kts | 9° |
| 2026-05-04 19:33 | 32.73472 | -117.20538 | 30 ft | 13 kts | 31° |
| 2026-05-04 19:33 | 32.73542 | -117.20466 | 28 ft | 14 kts | 48° |
| 2026-05-04 19:34 | 32.73585 | -117.20371 | 30 ft | 11 kts | 88° |
| 2026-05-04 19:34 | 32.73572 | -117.20293 | 32 ft | 9 kts | 103° |
| 2026-05-04 19:34 | 32.73556 | -117.20220 | 34 ft | 10 kts | 106° |
| 2026-05-04 19:34 | 32.73531 | -117.20115 | 34 ft | 17 kts | 107° |
| 2026-05-04 19:35 | 32.73494 | -117.19963 | 34 ft | 20 kts | 107° |
| 2026-05-04 19:35 | 32.73457 | -117.19811 | 35 ft | 19 kts | 107° |
| 2026-05-04 19:35 | 32.73421 | -117.19659 | 34 ft | 19 kts | 105° |
| 2026-05-04 19:35 | 32.73385 | -117.19509 | 35 ft | 18 kts | 107° |
| 2026-05-04 19:36 | 32.73348 | -117.19360 | 32 ft | 20 kts | 106° |
| 2026-05-04 19:36 | 32.73312 | -117.19217 | 31 ft | 17 kts | 107° |
| 2026-05-04 19:36 | 32.73281 | -117.19089 | 33 ft | 15 kts | 107° |
| 2026-05-04 19:36 | 32.73254 | -117.18971 | 33 ft | 15 kts | 106° |
| 2026-05-04 19:37 | 32.73226 | -117.18856 | 34 ft | 14 kts | 105° |
| 2026-05-04 19:37 | 32.73200 | -117.18751 | 35 ft | 13 kts | 106° |
| 2026-05-04 19:37 | 32.73171 | -117.18635 | 34 ft | 17 kts | 107° |
| 2026-05-04 19:37 | 32.73138 | -117.18491 | 31 ft | 19 kts | 107° |
| 2026-05-04 19:38 | 32.73101 | -117.18346 | 30 ft | 18 kts | 107° |
| 2026-05-04 19:38 | 32.73066 | -117.18199 | 30 ft | 19 kts | 105° |
| 2026-05-04 19:38 | 32.73030 | -117.18047 | 28 ft | 19 kts | 107° |
| 2026-05-04 19:38 | 32.72994 | -117.17901 | 27 ft | 18 kts | 107° |
| 2026-05-04 19:39 | 32.72960 | -117.17758 | 30 ft | 11 kts | 107° |
| 2026-05-04 19:39 | 32.72951 | -117.17724 | 27 ft | 0 kts | 101° |
| 2026-05-04 19:39 | 32.72950 | -117.17713 | 27 ft | 6 kts | 98° |
| 2026-05-04 19:40 | 32.72961 | -117.17634 | 29 ft | 10 kts | 71° |
| 2026-05-04 19:40 | 32.72988 | -117.17580 | 31 ft | 3 kts | 33° |
| 2026-05-04 19:40 | 32.73022 | -117.17589 | 30 ft | 7 kts | 311° |
| 2026-05-04 19:40 | 32.73034 | -117.17642 | 29 ft | 0 kts | 284° |
| 2026-05-04 19:41 | 32.73046 | -117.17686 | 29 ft | 27 kts | 290° |
| 2026-05-04 19:41 | 32.73189 | -117.18288 | 32 ft | 123 kts | 285° |
| 2026-05-04 19:41 | 32.73509 | -117.19573 | 224 ft | 193 kts | 287° |
| 2026-05-04 19:42 | 32.73883 | -117.21143 | 1151 ft | 195 kts | 284° |
| 2026-05-04 19:42 | 32.74159 | -117.22750 | 1920 ft | 202 kts | 270° |
| 2026-05-04 19:42 | 32.73752 | -117.24354 | 2891 ft | 209 kts | 236° |
| 2026-05-04 19:42 | 32.72644 | -117.25505 | 3608 ft | 222 kts | 213° |
| 2026-05-04 19:43 | 32.71225 | -117.26312 | 4163 ft | 225 kts | 203° |
| 2026-05-04 19:43 | 32.69668 | -117.26669 | 4769 ft | 238 kts | 184° |
| 2026-05-04 19:43 | 32.67953 | -117.26497 | 5851 ft | 245 kts | 172° |
| 2026-05-04 19:43 | 32.66377 | -117.26073 | 7414 ft | 222 kts | 168° |
| 2026-05-04 19:44 | 32.64907 | -117.25504 | 8235 ft | 227 kts | 161° |
| 2026-05-04 19:44 | 32.63577 | -117.24309 | 8657 ft | 254 kts | 131° |
| 2026-05-04 19:44 | 32.62649 | -117.22589 | 9545 ft | 254 kts | 124° |
| 2026-05-04 19:44 | 32.61853 | -117.20559 | 9654 ft | 286 kts | 114° |
| 2026-05-04 19:45 | 32.61168 | -117.18261 | 10118 ft | 301 kts | 112° |
| 2026-05-04 19:45 | 32.60435 | -117.15832 | 10513 ft | 325 kts | 114° |
| 2026-05-04 19:45 | 32.59802 | -117.13169 | 11032 ft | 350 kts | 98° |
| 2026-05-04 19:45 | 32.60003 | -117.10212 | 11609 ft | 372 kts | 75° |
| 2026-05-04 19:46 | 32.61111 | -117.07387 | 12180 ft | 387 kts | 53° |
| 2026-05-04 19:46 | 32.63001 | -117.05070 | 12763 ft | 397 kts | 35° |
| 2026-05-04 19:46 | 32.65272 | -117.03105 | 13325 ft | 409 kts | 31° |
| 2026-05-04 19:46 | 32.67654 | -117.01192 | 13924 ft | 418 kts | 30° |
| 2026-05-04 19:47 | 32.70079 | -116.99232 | 14574 ft | 425 kts | 33° |
| 2026-05-04 19:47 | 32.72395 | -116.96985 | 15188 ft | 432 kts | 37° |
| 2026-05-04 19:47 | 32.74720 | -116.94701 | 15812 ft | 437 kts | 36° |
| 2026-05-04 19:47 | 32.77103 | -116.92406 | 16431 ft | 442 kts | 36° |
| 2026-05-04 19:48 | 32.79479 | -116.90102 | 17047 ft | 448 kts | 36° |
| 2026-05-04 19:48 | 32.81902 | -116.87746 | 17642 ft | 453 kts | 36° |
| 2026-05-04 19:48 | 32.84351 | -116.85338 | 18218 ft | 459 kts | 37° |
| 2026-05-04 19:48 | 32.86833 | -116.82927 | 18710 ft | 462 kts | 33° |
| 2026-05-04 19:49 | 32.89447 | -116.80651 | 19212 ft | 467 kts | 33° |
| 2026-05-04 19:49 | 32.92057 | -116.78323 | 19677 ft | 472 kts | 34° |
| 2026-05-04 19:49 | 32.94675 | -116.75971 | 20086 ft | 477 kts | 33° |
| 2026-05-04 19:49 | 32.97344 | -116.73587 | 20519 ft | 482 kts | 33° |
| 2026-05-04 19:50 | 33.00044 | -116.71170 | 20994 ft | 487 kts | 34° |
| 2026-05-04 19:50 | 33.02763 | -116.68731 | 21467 ft | 492 kts | 33° |
| 2026-05-04 19:50 | 33.05516 | -116.66261 | 21927 ft | 497 kts | 34° |
| 2026-05-04 19:50 | 33.08286 | -116.63773 | 22345 ft | 501 kts | 34° |
| 2026-05-04 19:51 | 33.11085 | -116.61255 | 22764 ft | 506 kts | 34° |
| 2026-05-04 19:51 | 33.13897 | -116.58695 | 23194 ft | 509 kts | 32° |
| 2026-05-04 19:51 | 33.16869 | -116.56379 | 23541 ft | 512 kts | 28° |
| 2026-05-04 19:51 | 33.19865 | -116.54052 | 23915 ft | 516 kts | 30° |
| 2026-05-04 19:52 | 33.22876 | -116.51684 | 24216 ft | 520 kts | 30° |
| 2026-05-04 19:52 | 33.25910 | -116.49315 | 24522 ft | 523 kts | 29° |
| 2026-05-04 19:52 | 33.28926 | -116.46954 | 24798 ft | 526 kts | 29° |
| 2026-05-04 19:52 | 33.31996 | -116.44546 | 25046 ft | 530 kts | 30° |
| 2026-05-04 19:53 | 33.35098 | -116.42112 | 25334 ft | 534 kts | 29° |
| 2026-05-04 19:53 | 33.38149 | -116.39559 | 25634 ft | 540 kts | 38° |
| 2026-05-04 19:53 | 33.40876 | -116.36430 | 25954 ft | 546 kts | 45° |
| 2026-05-04 19:53 | 33.43262 | -116.32884 | 26252 ft | 550 kts | 57° |
| 2026-05-04 19:54 | 33.45435 | -116.29097 | 26559 ft | 554 kts | 55° |
| 2026-05-04 19:54 | 33.47724 | -116.25341 | 26696 ft | 560 kts | 55° |
| 2026-05-04 19:54 | 33.49991 | -116.21546 | 27053 ft | 561 kts | 55° |
| 2026-05-04 19:54 | 33.52265 | -116.17740 | 27292 ft | 564 kts | 55° |
| 2026-05-04 19:55 | 33.54562 | -116.13907 | 27529 ft | 567 kts | 55° |
| 2026-05-04 19:55 | 33.56859 | -116.10055 | 27771 ft | 570 kts | 55° |
| 2026-05-04 19:55 | 33.59115 | -116.06196 | 28016 ft | 573 kts | 58° |
| 2026-05-04 19:55 | 33.61231 | -116.02132 | 28231 ft | 573 kts | 65° |
| 2026-05-04 19:56 | 33.62965 | -115.97827 | 28478 ft | 575 kts | 67° |
| 2026-05-04 19:56 | 33.64758 | -115.93525 | 28725 ft | 577 kts | 66° |
| 2026-05-04 19:56 | 33.66541 | -115.89189 | 28935 ft | 580 kts | 67° |
| 2026-05-04 19:56 | 33.68326 | -115.84835 | 29162 ft | 582 kts | 67° |
| 2026-05-04 19:57 | 33.70126 | -115.80460 | 29381 ft | 585 kts | 67° |
| 2026-05-04 19:57 | 33.71924 | -115.76074 | 29594 ft | 587 kts | 67° |
| 2026-05-04 19:57 | 33.73741 | -115.71638 | 29789 ft | 589 kts | 67° |
| 2026-05-04 19:57 | 33.75550 | -115.67217 | 29935 ft | 591 kts | 67° |
| 2026-05-04 19:58 | 33.77369 | -115.62768 | 30138 ft | 592 kts | 67° |
| 2026-05-04 19:58 | 33.79190 | -115.58307 | 30323 ft | 594 kts | 67° |
| 2026-05-04 19:58 | 33.81008 | -115.53844 | 30516 ft | 597 kts | 67° |
| 2026-05-04 19:58 | 33.82837 | -115.49352 | 30701 ft | 599 kts | 67° |
| 2026-05-04 19:59 | 33.84654 | -115.44886 | 30898 ft | 601 kts | 67° |
| 2026-05-04 19:59 | 33.86493 | -115.40353 | 31093 ft | 604 kts | 67° |
| 2026-05-04 19:59 | 33.88335 | -115.35811 | 31456 ft | 601 kts | 66° |
| 2026-05-04 19:59 | 33.90154 | -115.31324 | 32081 ft | 595 kts | 67° |
| 2026-05-04 20:00 | 33.91966 | -115.26835 | 32358 ft | 596 kts | 66° |
| 2026-05-04 20:00 | 33.93785 | -115.22335 | 32645 ft | 598 kts | 66° |
| 2026-05-04 20:00 | 33.95604 | -115.17827 | 32943 ft | 599 kts | 66° |
| 2026-05-04 20:00 | 33.97422 | -115.13311 | 33237 ft | 600 kts | 66° |
| 2026-05-04 20:01 | 33.99242 | -115.08784 | 33482 ft | 602 kts | 66° |
| 2026-05-04 20:01 | 34.01083 | -115.04210 | 33590 ft | 604 kts | 66° |
| 2026-05-04 20:01 | 34.02908 | -114.99658 | 33956 ft | 604 kts | 66° |
| 2026-05-04 20:01 | 34.04733 | -114.95096 | 34253 ft | 603 kts | 66° |
| 2026-05-04 20:02 | 34.06557 | -114.90542 | 34573 ft | 598 kts | 66° |
| 2026-05-04 20:02 | 34.08338 | -114.86085 | 34717 ft | 584 kts | 66° |
| 2026-05-04 20:02 | 34.10101 | -114.81662 | 34810 ft | 587 kts | 66° |
| 2026-05-04 20:03 | 34.13679 | -114.72680 | 34878 ft | 600 kts | 66° |
| 2026-05-04 20:03 | 34.17262 | -114.63662 | 34871 ft | 597 kts | 66° |
| 2026-05-04 20:04 | 34.20837 | -114.54634 | 34869 ft | 595 kts | 66° |
| 2026-05-04 20:04 | 34.24412 | -114.45584 | 34879 ft | 597 kts | 66° |
| 2026-05-04 20:05 | 34.27983 | -114.36520 | 34886 ft | 597 kts | 66° |
| 2026-05-04 20:05 | 34.31545 | -114.27451 | 34879 ft | 595 kts | 66° |
| 2026-05-04 20:06 | 34.35068 | -114.18463 | 34875 ft | 597 kts | 66° |
| 2026-05-04 20:06 | 34.38622 | -114.09370 | 34888 ft | 597 kts | 66° |
| 2026-05-04 20:07 | 34.42162 | -114.00283 | 34868 ft | 595 kts | 66° |
| 2026-05-04 20:07 | 34.45692 | -113.91199 | 34855 ft | 597 kts | 66° |
| 2026-05-04 20:08 | 34.49203 | -113.82142 | 34861 ft | 596 kts | 66° |
| 2026-05-04 20:08 | 34.52718 | -113.73047 | 34843 ft | 595 kts | 66° |
| 2026-05-04 20:09 | 34.56218 | -113.63960 | 34847 ft | 595 kts | 69° |
| 2026-05-04 20:09 | 34.59114 | -113.54564 | 34861 ft | 595 kts | 71° |
| 2026-05-04 20:10 | 34.61996 | -113.45135 | 34842 ft | 594 kts | 71° |
| 2026-05-04 20:10 | 34.64390 | -113.37309 | 34840 ft | 593 kts | 71° |
| 2026-05-04 20:11 | 34.67253 | -113.27905 | 34843 ft | 594 kts | 71° |
| 2026-05-04 20:11 | 34.70110 | -113.18489 | 34847 ft | 594 kts | 71° |
| 2026-05-04 20:12 | 34.72960 | -113.09077 | 34849 ft | 593 kts | 71° |
| 2026-05-04 20:12 | 34.76260 | -112.98130 | 34850 ft | 593 kts | 71° |
| 2026-05-04 20:13 | 34.78634 | -112.90233 | 34841 ft | 594 kts | 71° |
| 2026-05-04 20:13 | 34.81444 | -112.80856 | 34840 ft | 593 kts | 71° |
| 2026-05-04 20:14 | 34.84265 | -112.71409 | 34881 ft | 593 kts | 71° |
| 2026-05-04 20:14 | 34.87081 | -112.61952 | 34904 ft | 594 kts | 71° |
| 2026-05-04 20:15 | 34.89891 | -112.52484 | 34916 ft | 594 kts | 71° |
| 2026-05-04 20:15 | 34.92693 | -112.43010 | 34915 ft | 593 kts | 71° |
| 2026-05-04 20:16 | 34.95486 | -112.33532 | 34889 ft | 594 kts | 71° |
| 2026-05-04 20:16 | 34.98270 | -112.24058 | 34857 ft | 594 kts | 71° |
| 2026-05-04 20:17 | 35.01032 | -112.14625 | 34869 ft | 594 kts | 71° |
| 2026-05-04 20:17 | 35.03805 | -112.05124 | 34907 ft | 593 kts | 71° |
| 2026-05-04 20:18 | 35.06558 | -111.95664 | 34964 ft | 592 kts | 71° |
| 2026-05-04 20:18 | 35.09309 | -111.86174 | 35045 ft | 592 kts | 71° |
| 2026-05-04 20:19 | 35.12031 | -111.76754 | 35101 ft | 590 kts | 71° |
| 2026-05-04 20:19 | 35.14814 | -111.67316 | 35090 ft | 590 kts | 66° |
| 2026-05-04 20:20 | 35.18411 | -111.58310 | 35117 ft | 592 kts | 63° |
| 2026-05-04 20:20 | 35.22066 | -111.49279 | 35031 ft | 590 kts | 62° |
| 2026-05-04 20:21 | 35.25664 | -111.40344 | 34954 ft | 588 kts | 62° |
| 2026-05-04 20:21 | 35.31100 | -111.26817 | 34843 ft | 591 kts | 62° |
| 2026-05-04 20:22 | 35.34724 | -111.17766 | 34831 ft | 590 kts | 62° |
| 2026-05-04 20:22 | 35.38334 | -111.08725 | 34819 ft | 590 kts | 62° |
| 2026-05-04 20:23 | 35.41935 | -110.99681 | 34826 ft | 591 kts | 62° |
| 2026-05-04 20:23 | 35.45519 | -110.90656 | 34821 ft | 591 kts | 62° |
| 2026-05-04 20:24 | 35.49119 | -110.81566 | 34823 ft | 588 kts | 62° |
| 2026-05-04 20:24 | 35.52673 | -110.72566 | 34830 ft | 589 kts | 62° |
| 2026-05-04 20:25 | 35.56242 | -110.63503 | 34836 ft | 589 kts | 62° |
| 2026-05-04 20:25 | 35.59794 | -110.54460 | 34838 ft | 587 kts | 62° |
| 2026-05-04 20:26 | 35.63339 | -110.45407 | 34841 ft | 587 kts | 62° |
| 2026-05-04 20:26 | 35.66881 | -110.36338 | 34847 ft | 588 kts | 62° |
| 2026-05-04 20:27 | 35.70392 | -110.27320 | 34850 ft | 588 kts | 62° |
| 2026-05-04 20:27 | 35.73915 | -110.18249 | 34845 ft | 587 kts | 62° |
| 2026-05-04 20:28 | 35.77425 | -110.09185 | 34847 ft | 587 kts | 62° |
| 2026-05-04 20:28 | 35.80931 | -110.00106 | 34848 ft | 588 kts | 62° |
| 2026-05-04 20:29 | 35.84435 | -109.91008 | 34840 ft | 586 kts | 62° |
| 2026-05-04 20:29 | 35.87931 | -109.81902 | 34835 ft | 585 kts | 62° |
| 2026-05-04 20:30 | 35.91379 | -109.72898 | 34824 ft | 585 kts | 62° |
| 2026-05-04 20:30 | 35.94859 | -109.63782 | 34823 ft | 587 kts | 62° |
| 2026-05-04 20:31 | 35.98331 | -109.54663 | 34821 ft | 585 kts | 62° |
| 2026-05-04 20:31 | 36.01780 | -109.45577 | 34835 ft | 585 kts | 62° |
| 2026-05-04 20:32 | 36.05213 | -109.36507 | 34830 ft | 585 kts | 62° |
| 2026-05-04 20:32 | 36.08656 | -109.27386 | 34840 ft | 585 kts | 62° |
| 2026-05-04 20:33 | 36.12103 | -109.18226 | 34842 ft | 585 kts | 62° |
| 2026-05-04 20:33 | 36.15506 | -109.09157 | 34839 ft | 584 kts | 62° |
| 2026-05-04 20:34 | 36.18921 | -109.00031 | 34837 ft | 584 kts | 61° |
| 2026-05-04 20:34 | 36.22333 | -108.90890 | 34813 ft | 584 kts | 62° |
| 2026-05-04 20:35 | 36.25732 | -108.81752 | 34816 ft | 584 kts | 62° |
| 2026-05-04 20:35 | 36.29104 | -108.72662 | 34822 ft | 584 kts | 62° |
| 2026-05-04 20:36 | 36.32496 | -108.63490 | 34818 ft | 584 kts | 62° |
| 2026-05-04 20:36 | 36.35882 | -108.54307 | 34825 ft | 584 kts | 62° |
| 2026-05-04 20:37 | 36.39260 | -108.45121 | 34825 ft | 585 kts | 62° |
| 2026-05-04 20:37 | 36.42630 | -108.35930 | 34850 ft | 585 kts | 62° |
| 2026-05-04 20:38 | 36.45990 | -108.26735 | 34892 ft | 584 kts | 62° |
| 2026-05-04 20:38 | 36.49324 | -108.17587 | 34911 ft | 583 kts | 62° |
| 2026-05-04 20:39 | 36.52667 | -108.08388 | 34933 ft | 584 kts | 62° |
| 2026-05-04 20:39 | 36.56010 | -107.99159 | 34932 ft | 585 kts | 62° |
| 2026-05-04 20:40 | 36.59344 | -107.89927 | 34897 ft | 583 kts | 62° |
| 2026-05-04 20:40 | 36.62673 | -107.80687 | 34873 ft | 584 kts | 62° |
| 2026-05-04 20:41 | 36.65988 | -107.71454 | 34859 ft | 584 kts | 62° |
| 2026-05-04 20:41 | 36.69287 | -107.62235 | 34857 ft | 585 kts | 62° |
| 2026-05-04 20:42 | 36.72597 | -107.52961 | 34862 ft | 585 kts | 62° |
| 2026-05-04 20:42 | 36.75899 | -107.43682 | 34864 ft | 585 kts | 62° |
| 2026-05-04 20:43 | 36.79217 | -107.34401 | 34861 ft | 587 kts | 65° |
| 2026-05-04 20:43 | 36.82263 | -107.24945 | 34879 ft | 586 kts | 63° |
| 2026-05-04 20:44 | 36.85325 | -107.15507 | 34874 ft | 587 kts | 64° |
| 2026-05-04 20:44 | 36.88375 | -107.06120 | 34878 ft | 586 kts | 64° |
| 2026-05-04 20:45 | 36.91430 | -106.96677 | 34891 ft | 585 kts | 64° |
| 2026-05-04 20:45 | 36.94489 | -106.87199 | 34904 ft | 586 kts | 64° |
| 2026-05-04 20:46 | 36.97518 | -106.77780 | 34900 ft | 586 kts | 64° |
| 2026-05-04 20:46 | 37.00546 | -106.68335 | 34905 ft | 584 kts | 64° |
| 2026-05-04 20:47 | 37.03562 | -106.58891 | 34911 ft | 584 kts | 64° |
| 2026-05-04 20:47 | 37.06573 | -106.49439 | 34924 ft | 584 kts | 64° |
| 2026-05-04 20:48 | 37.09576 | -106.39977 | 34901 ft | 583 kts | 64° |
| 2026-05-04 20:48 | 37.12555 | -106.30559 | 34894 ft | 581 kts | 64° |
| 2026-05-04 20:49 | 37.15526 | -106.21139 | 34876 ft | 581 kts | 64° |
| 2026-05-04 20:49 | 37.18478 | -106.11748 | 34881 ft | 581 kts | 64° |
| 2026-05-04 20:50 | 37.21433 | -106.02316 | 34919 ft | 580 kts | 64° |
| 2026-05-04 20:50 | 37.24383 | -105.92866 | 34957 ft | 582 kts | 64° |
| 2026-05-04 20:51 | 37.27333 | -105.83386 | 34975 ft | 584 kts | 64° |
| 2026-05-04 20:51 | 37.30273 | -105.73904 | 34959 ft | 582 kts | 64° |
| 2026-05-04 20:52 | 37.33209 | -105.64408 | 34936 ft | 584 kts | 65° |
| 2026-05-04 20:52 | 37.36155 | -105.54843 | 34891 ft | 585 kts | 65° |
| 2026-05-04 20:53 | 37.39075 | -105.45333 | 34844 ft | 582 kts | 65° |
| 2026-05-04 20:53 | 37.41968 | -105.35878 | 34824 ft | 583 kts | 65° |
| 2026-05-04 20:54 | 37.44881 | -105.26323 | 34816 ft | 583 kts | 65° |
| 2026-05-04 20:54 | 37.47776 | -105.16799 | 34794 ft | 580 kts | 65° |
| 2026-05-04 20:55 | 37.50637 | -105.07353 | 34773 ft | 580 kts | 65° |
| 2026-05-04 20:55 | 37.53502 | -104.97860 | 34757 ft | 580 kts | 65° |
| 2026-05-04 20:56 | 37.55889 | -104.89927 | 34747 ft | 579 kts | 65° |
| 2026-05-04 20:56 | 37.58738 | -104.80430 | 34730 ft | 580 kts | 65° |
| 2026-05-04 20:57 | 37.61593 | -104.70877 | 34716 ft | 583 kts | 65° |
| 2026-05-04 20:57 | 37.64449 | -104.61289 | 34695 ft | 583 kts | 65° |
| 2026-05-04 20:58 | 37.67293 | -104.51710 | 34686 ft | 583 kts | 65° |
| 2026-05-04 20:58 | 37.70122 | -104.42145 | 34672 ft | 586 kts | 65° |
| 2026-05-04 20:59 | 37.72969 | -104.32484 | 34658 ft | 585 kts | 65° |
| 2026-05-04 20:59 | 37.75800 | -104.22847 | 34655 ft | 585 kts | 65° |
| 2026-05-04 21:00 | 37.78613 | -104.13235 | 34642 ft | 586 kts | 65° |
| 2026-05-04 21:00 | 37.81435 | -104.03559 | 34635 ft | 587 kts | 65° |
| 2026-05-04 21:01 | 37.84257 | -103.93850 | 34627 ft | 586 kts | 65° |
| 2026-05-04 21:01 | 37.87069 | -103.84139 | 34648 ft | 586 kts | 65° |
| 2026-05-04 21:02 | 37.89855 | -103.74482 | 34701 ft | 588 kts | 65° |
| 2026-05-04 21:02 | 37.92655 | -103.64742 | 34734 ft | 587 kts | 65° |
| 2026-05-04 21:03 | 37.95439 | -103.55024 | 34759 ft | 587 kts | 65° |
| 2026-05-04 21:03 | 37.98221 | -103.45276 | 34785 ft | 589 kts | 65° |
| 2026-05-04 21:04 | 38.01000 | -103.35503 | 34754 ft | 588 kts | 65° |
| 2026-05-04 21:04 | 38.03763 | -103.25750 | 34710 ft | 587 kts | 65° |
| 2026-05-04 21:05 | 38.06517 | -103.15993 | 34670 ft | 588 kts | 65° |
| 2026-05-04 21:05 | 38.09267 | -103.06216 | 34660 ft | 588 kts | 65° |
| 2026-05-04 21:06 | 38.11988 | -102.96505 | 34689 ft | 587 kts | 65° |
| 2026-05-04 21:06 | 38.14719 | -102.86724 | 34716 ft | 587 kts | 65° |
| 2026-05-04 21:07 | 38.17440 | -102.76939 | 34735 ft | 588 kts | 65° |
| 2026-05-04 21:07 | 38.20023 | -102.67047 | 34724 ft | 592 kts | 74° |
| 2026-05-04 21:08 | 38.21706 | -102.56802 | 34721 ft | 593 kts | 74° |
| 2026-05-04 21:08 | 38.23396 | -102.46519 | 34685 ft | 593 kts | 74° |
| 2026-05-04 21:09 | 38.25088 | -102.36250 | 34654 ft | 592 kts | 74° |
| 2026-05-04 21:09 | 38.26756 | -102.26057 | 34637 ft | 591 kts | 74° |
| 2026-05-04 21:10 | 38.28426 | -102.15784 | 34631 ft | 593 kts | 74° |
| 2026-05-04 21:10 | 38.30085 | -102.05513 | 34638 ft | 592 kts | 74° |
| 2026-05-04 21:11 | 38.31729 | -101.95287 | 34636 ft | 588 kts | 74° |
| 2026-05-04 21:11 | 38.33336 | -101.85068 | 34645 ft | 588 kts | 75° |
| 2026-05-04 21:12 | 38.35220 | -101.74966 | 34645 ft | 586 kts | 71° |
| 2026-05-04 21:12 | 38.37127 | -101.64870 | 34638 ft | 584 kts | 71° |
| 2026-05-04 21:13 | 38.39009 | -101.54891 | 34647 ft | 582 kts | 71° |
| 2026-05-04 21:13 | 38.40898 | -101.44838 | 34654 ft | 583 kts | 71° |
| 2026-05-04 21:14 | 38.42774 | -101.34793 | 34650 ft | 583 kts | 71° |
| 2026-05-04 21:14 | 38.44647 | -101.24717 | 34680 ft | 581 kts | 71° |
| 2026-05-04 21:15 | 38.46501 | -101.14686 | 34703 ft | 581 kts | 71° |
| 2026-05-04 21:15 | 38.48337 | -101.04701 | 34726 ft | 580 kts | 71° |
| 2026-05-04 21:16 | 38.50172 | -100.94678 | 34742 ft | 578 kts | 71° |
| 2026-05-04 21:16 | 38.51993 | -100.84677 | 34747 ft | 578 kts | 71° |
| 2026-05-04 21:17 | 38.53804 | -100.74675 | 34731 ft | 578 kts | 71° |
| 2026-05-04 21:17 | 38.55608 | -100.64660 | 34703 ft | 577 kts | 71° |
| 2026-05-04 21:18 | 38.57386 | -100.54740 | 34674 ft | 575 kts | 71° |
| 2026-05-04 21:18 | 38.59168 | -100.44747 | 34654 ft | 576 kts | 71° |
| 2026-05-04 21:19 | 38.60940 | -100.34754 | 34650 ft | 575 kts | 72° |
| 2026-05-04 21:19 | 38.62699 | -100.24782 | 34651 ft | 572 kts | 72° |
| 2026-05-04 21:20 | 38.64433 | -100.14905 | 34658 ft | 572 kts | 72° |
| 2026-05-04 21:20 | 38.66169 | -100.04952 | 34661 ft | 572 kts | 72° |
| 2026-05-04 21:21 | 38.67890 | -99.95040 | 34664 ft | 569 kts | 72° |
| 2026-05-04 21:21 | 38.69601 | -99.85138 | 34666 ft | 569 kts | 72° |
| 2026-05-04 21:22 | 38.71299 | -99.75254 | 34668 ft | 568 kts | 72° |
| 2026-05-04 21:22 | 38.72977 | -99.65427 | 34683 ft | 568 kts | 72° |
| 2026-05-04 21:23 | 38.74654 | -99.55558 | 34692 ft | 566 kts | 72° |
| 2026-05-04 21:23 | 38.76323 | -99.45688 | 34700 ft | 565 kts | 72° |
| 2026-05-04 21:24 | 38.77979 | -99.35836 | 34710 ft | 565 kts | 72° |
| 2026-05-04 21:24 | 38.79625 | -99.25990 | 34707 ft | 564 kts | 72° |
| 2026-05-04 21:25 | 38.81251 | -99.16209 | 34705 ft | 563 kts | 72° |
| 2026-05-04 21:25 | 38.82877 | -99.06378 | 34689 ft | 562 kts | 73° |
| 2026-05-04 21:26 | 38.84491 | -98.96562 | 34690 ft | 561 kts | 73° |
| 2026-05-04 21:26 | 38.86083 | -98.86824 | 34703 ft | 561 kts | 73° |
| 2026-05-04 21:27 | 38.87675 | -98.77034 | 34694 ft | 559 kts | 73° |
| 2026-05-04 21:27 | 38.89257 | -98.67256 | 34690 ft | 559 kts | 73° |
| 2026-05-04 21:28 | 38.90829 | -98.57476 | 34692 ft | 560 kts | 73° |
| 2026-05-04 21:28 | 38.92395 | -98.47680 | 34680 ft | 559 kts | 73° |
| 2026-05-04 21:29 | 38.93955 | -98.37987 | 34672 ft | 554 kts | 69° |
| 2026-05-04 21:29 | 38.95987 | -98.28433 | 34680 ft | 555 kts | 69° |
| 2026-05-04 21:30 | 38.97990 | -98.18851 | 34672 ft | 554 kts | 69° |
| 2026-05-04 21:30 | 38.99970 | -98.09300 | 34669 ft | 551 kts | 69° |
| 2026-05-04 21:31 | 39.02914 | -97.95046 | 34676 ft | 552 kts | 69° |
| 2026-05-04 21:32 | 39.04877 | -97.85482 | 34680 ft | 552 kts | 69° |
| 2026-05-04 21:32 | 39.06827 | -97.75937 | 34680 ft | 550 kts | 69° |
| 2026-05-04 21:33 | 39.08762 | -97.66424 | 34683 ft | 550 kts | 70° |
| 2026-05-04 21:33 | 39.10693 | -97.56890 | 34686 ft | 550 kts | 70° |
| 2026-05-04 21:34 | 39.12613 | -97.47362 | 34666 ft | 549 kts | 70° |
| 2026-05-04 21:34 | 39.14515 | -97.37884 | 34674 ft | 547 kts | 70° |
| 2026-05-04 21:35 | 39.16417 | -97.28359 | 34670 ft | 548 kts | 70° |
| 2026-05-04 21:35 | 39.18297 | -97.18900 | 34672 ft | 548 kts | 70° |
| 2026-05-04 21:36 | 39.20188 | -97.09346 | 34674 ft | 546 kts | 70° |
| 2026-05-04 21:36 | 39.22045 | -96.99915 | 34675 ft | 545 kts | 70° |
| 2026-05-04 21:37 | 39.23907 | -96.90420 | 34684 ft | 545 kts | 71° |
| 2026-05-04 21:37 | 39.25748 | -96.80981 | 34686 ft | 545 kts | 71° |
| 2026-05-04 21:38 | 39.27591 | -96.71496 | 34685 ft | 543 kts | 71° |
| 2026-05-04 21:38 | 39.29422 | -96.62023 | 34680 ft | 544 kts | 71° |
| 2026-05-04 21:39 | 39.31249 | -96.52523 | 34679 ft | 545 kts | 71° |
| 2026-05-04 21:39 | 39.33069 | -96.43021 | 34671 ft | 544 kts | 71° |
| 2026-05-04 21:40 | 39.34865 | -96.33596 | 34662 ft | 543 kts | 71° |
| 2026-05-04 21:40 | 39.36670 | -96.24076 | 34672 ft | 544 kts | 71° |
| 2026-05-04 21:41 | 39.38163 | -96.16172 | 34673 ft | 544 kts | 72° |
| 2026-05-04 21:41 | 39.39947 | -96.06684 | 34664 ft | 542 kts | 72° |
| 2026-05-04 21:42 | 39.42011 | -95.95646 | 34669 ft | 543 kts | 72° |
| 2026-05-04 21:42 | 39.43491 | -95.87692 | 34665 ft | 543 kts | 72° |
| 2026-05-04 21:43 | 39.45248 | -95.78206 | 34664 ft | 541 kts | 72° |
| 2026-05-04 21:43 | 39.46998 | -95.68718 | 34667 ft | 541 kts | 72° |
| 2026-05-04 21:44 | 39.48729 | -95.59287 | 34666 ft | 541 kts | 72° |
| 2026-05-04 21:44 | 39.50462 | -95.49790 | 34663 ft | 540 kts | 72° |
| 2026-05-04 21:45 | 39.52181 | -95.40329 | 34664 ft | 539 kts | 72° |
| 2026-05-04 21:45 | 39.53889 | -95.30878 | 34664 ft | 539 kts | 72° |
| 2026-05-04 21:46 | 39.55584 | -95.21456 | 34661 ft | 539 kts | 72° |
| 2026-05-04 21:46 | 39.57272 | -95.12025 | 34657 ft | 537 kts | 72° |
| 2026-05-04 21:47 | 39.58953 | -95.02586 | 34659 ft | 538 kts | 72° |
| 2026-05-04 21:47 | 39.60618 | -94.93133 | 34662 ft | 536 kts | 73° |
| 2026-05-04 21:48 | 39.62672 | -94.83930 | 34667 ft | 530 kts | 68° |
| 2026-05-04 21:48 | 39.64838 | -94.74750 | 34660 ft | 531 kts | 68° |
| 2026-05-04 21:49 | 39.67006 | -94.65594 | 34655 ft | 529 kts | 68° |
| 2026-05-04 21:49 | 39.69157 | -94.56473 | 34657 ft | 527 kts | 68° |
| 2026-05-04 21:50 | 39.71282 | -94.47415 | 34658 ft | 528 kts | 69° |
| 2026-05-04 21:50 | 39.73414 | -94.38293 | 34649 ft | 527 kts | 69° |
| 2026-05-04 21:51 | 39.75534 | -94.29186 | 34660 ft | 525 kts | 69° |
| 2026-05-04 21:51 | 39.77644 | -94.20098 | 34652 ft | 525 kts | 69° |
| 2026-05-04 21:52 | 39.79725 | -94.11056 | 34654 ft | 524 kts | 69° |
| 2026-05-04 21:52 | 39.81822 | -94.01923 | 34647 ft | 523 kts | 69° |
| 2026-05-04 21:53 | 39.83885 | -93.92905 | 34648 ft | 522 kts | 69° |
| 2026-05-04 21:53 | 39.85949 | -93.83842 | 34649 ft | 522 kts | 70° |
| 2026-05-04 21:54 | 39.88006 | -93.74770 | 34651 ft | 522 kts | 70° |
| 2026-05-04 21:54 | 39.90052 | -93.65712 | 34649 ft | 520 kts | 70° |
| 2026-05-04 21:55 | 39.92088 | -93.56668 | 34647 ft | 520 kts | 70° |
| 2026-05-04 21:55 | 39.94102 | -93.47676 | 34647 ft | 520 kts | 70° |
| 2026-05-04 21:56 | 39.96125 | -93.38613 | 34649 ft | 519 kts | 70° |
| 2026-05-04 21:56 | 39.98132 | -93.29584 | 34650 ft | 518 kts | 70° |
| 2026-05-04 21:57 | 40.00133 | -93.20545 | 34655 ft | 519 kts | 70° |
| 2026-05-04 21:57 | 40.02131 | -93.11478 | 34658 ft | 519 kts | 70° |
| 2026-05-04 21:58 | 40.04116 | -93.02438 | 34658 ft | 518 kts | 70° |
| 2026-05-04 21:58 | 40.06091 | -92.93405 | 34664 ft | 518 kts | 70° |
| 2026-05-04 21:59 | 40.08062 | -92.84355 | 34673 ft | 518 kts | 70° |
| 2026-05-04 21:59 | 40.10013 | -92.75354 | 34673 ft | 517 kts | 70° |
| 2026-05-04 22:00 | 40.11962 | -92.66328 | 34677 ft | 516 kts | 70° |
| 2026-05-04 22:00 | 40.13567 | -92.57145 | 34682 ft | 520 kts | 79° |
| 2026-05-04 22:01 | 40.14108 | -92.47670 | 34689 ft | 523 kts | 83° |
| 2026-05-04 22:01 | 40.14600 | -92.38236 | 34670 ft | 522 kts | 84° |
| 2026-05-04 22:02 | 40.15086 | -92.28764 | 34668 ft | 520 kts | 84° |
| 2026-05-04 22:02 | 40.15559 | -92.19334 | 34665 ft | 520 kts | 84° |
| 2026-05-04 22:03 | 40.16025 | -92.09901 | 34660 ft | 520 kts | 84° |
| 2026-05-04 22:03 | 40.16482 | -92.00536 | 34656 ft | 518 kts | 84° |
| 2026-05-04 22:04 | 40.16931 | -91.91152 | 34655 ft | 516 kts | 84° |
| 2026-05-04 22:04 | 40.17372 | -91.81773 | 34656 ft | 516 kts | 84° |
| 2026-05-04 22:05 | 40.17806 | -91.72395 | 34657 ft | 516 kts | 84° |
| 2026-05-04 22:05 | 40.18230 | -91.63048 | 34648 ft | 514 kts | 84° |
| 2026-05-04 22:06 | 40.18647 | -91.53711 | 34648 ft | 514 kts | 85° |
| 2026-05-04 22:06 | 40.19056 | -91.44377 | 34646 ft | 514 kts | 85° |
| 2026-05-04 22:07 | 40.19457 | -91.35041 | 34645 ft | 513 kts | 85° |
| 2026-05-04 22:07 | 40.19849 | -91.25773 | 34654 ft | 512 kts | 85° |
| 2026-05-04 22:08 | 40.20234 | -91.16455 | 34657 ft | 513 kts | 85° |
| 2026-05-04 22:08 | 40.20612 | -91.07140 | 34653 ft | 512 kts | 85° |
| 2026-05-04 22:09 | 40.20981 | -90.97880 | 34652 ft | 511 kts | 85° |
| 2026-05-04 22:09 | 40.21343 | -90.88592 | 34651 ft | 511 kts | 85° |
| 2026-05-04 22:10 | 40.21698 | -90.79287 | 34657 ft | 511 kts | 85° |
| 2026-05-04 22:10 | 40.22045 | -90.69998 | 34652 ft | 510 kts | 85° |
| 2026-05-04 22:11 | 40.22385 | -90.60718 | 34651 ft | 510 kts | 85° |
| 2026-05-04 22:11 | 40.22717 | -90.51435 | 34651 ft | 511 kts | 85° |
| 2026-05-04 22:12 | 40.23041 | -90.42150 | 34651 ft | 510 kts | 85° |
| 2026-05-04 22:12 | 40.23359 | -90.32870 | 34651 ft | 510 kts | 86° |
| 2026-05-04 22:13 | 40.23665 | -90.23655 | 34651 ft | 510 kts | 86° |
| 2026-05-04 22:13 | 40.23967 | -90.14367 | 34650 ft | 511 kts | 86° |
| 2026-05-04 22:14 | 40.24261 | -90.05072 | 34657 ft | 510 kts | 86° |
| 2026-05-04 22:14 | 40.24548 | -89.95802 | 34659 ft | 510 kts | 86° |
| 2026-05-04 22:15 | 40.24825 | -89.86563 | 34659 ft | 510 kts | 86° |
| 2026-05-04 22:15 | 40.25097 | -89.77266 | 34658 ft | 510 kts | 86° |
| 2026-05-04 22:16 | 40.25362 | -89.67980 | 34676 ft | 509 kts | 86° |
| 2026-05-04 22:16 | 40.25618 | -89.58711 | 34679 ft | 510 kts | 86° |
| 2026-05-04 22:17 | 40.25866 | -89.49477 | 34690 ft | 510 kts | 86° |
| 2026-05-04 22:17 | 40.26109 | -89.40194 | 34699 ft | 510 kts | 86° |
| 2026-05-04 22:18 | 40.26343 | -89.30897 | 34693 ft | 510 kts | 86° |
| 2026-05-04 22:18 | 40.26571 | -89.21611 | 34690 ft | 511 kts | 86° |
| 2026-05-04 22:19 | 40.26790 | -89.12311 | 34696 ft | 510 kts | 86° |
| 2026-05-04 22:19 | 40.27002 | -89.03069 | 34687 ft | 511 kts | 86° |
| 2026-05-04 22:20 | 40.27207 | -88.93757 | 34694 ft | 511 kts | 87° |
| 2026-05-04 22:20 | 40.27405 | -88.84445 | 34687 ft | 511 kts | 87° |
| 2026-05-04 22:21 | 40.27594 | -88.75191 | 34691 ft | 510 kts | 87° |
| 2026-05-04 22:21 | 40.27778 | -88.65879 | 34695 ft | 511 kts | 87° |
| 2026-05-04 22:22 | 40.27953 | -88.56564 | 34695 ft | 511 kts | 87° |
| 2026-05-04 22:22 | 40.28121 | -88.47261 | 34703 ft | 510 kts | 87° |
| 2026-05-04 22:23 | 40.28281 | -88.37955 | 34710 ft | 511 kts | 87° |
| 2026-05-04 22:23 | 40.28435 | -88.28659 | 34707 ft | 511 kts | 87° |
| 2026-05-04 22:24 | 40.28580 | -88.19394 | 34710 ft | 511 kts | 87° |
| 2026-05-04 22:24 | 40.28717 | -88.10138 | 34705 ft | 510 kts | 87° |
| 2026-05-04 22:25 | 40.28848 | -88.00824 | 34712 ft | 511 kts | 88° |
| 2026-05-04 22:25 | 40.28972 | -87.91480 | 34706 ft | 511 kts | 88° |
| 2026-05-04 22:26 | 40.29087 | -87.82223 | 34721 ft | 511 kts | 88° |
| 2026-05-04 22:26 | 40.29196 | -87.72922 | 34714 ft | 512 kts | 88° |
| 2026-05-04 22:27 | 40.29297 | -87.63583 | 34720 ft | 512 kts | 88° |
| 2026-05-04 22:27 | 40.29883 | -87.54329 | 34726 ft | 510 kts | 78° |
| 2026-05-04 22:28 | 40.31625 | -87.45351 | 34738 ft | 509 kts | 71° |
| 2026-05-04 22:28 | 40.33211 | -87.37909 | 34720 ft | 510 kts | 71° |
| 2026-05-04 22:29 | 40.35137 | -87.28968 | 34725 ft | 508 kts | 71° |
| 2026-05-04 22:29 | 40.37044 | -87.20039 | 34722 ft | 509 kts | 71° |
| 2026-05-04 22:30 | 40.38919 | -87.11228 | 34719 ft | 511 kts | 71° |
| 2026-05-04 22:30 | 40.40820 | -87.02259 | 34716 ft | 510 kts | 71° |
| 2026-05-04 22:31 | 40.42705 | -86.93324 | 34717 ft | 509 kts | 71° |
| 2026-05-04 22:31 | 40.44590 | -86.84354 | 34722 ft | 511 kts | 71° |
| 2026-05-04 22:32 | 40.46475 | -86.75344 | 34721 ft | 511 kts | 71° |
| 2026-05-04 22:32 | 40.48345 | -86.66371 | 34727 ft | 510 kts | 72° |
| 2026-05-04 22:33 | 40.50213 | -86.57366 | 34728 ft | 511 kts | 72° |
| 2026-05-04 22:33 | 40.52066 | -86.48394 | 34733 ft | 511 kts | 72° |
| 2026-05-04 22:34 | 40.53920 | -86.39378 | 34731 ft | 510 kts | 72° |
| 2026-05-04 22:34 | 40.55762 | -86.30382 | 34721 ft | 510 kts | 72° |
| 2026-05-04 22:35 | 40.57596 | -86.21387 | 34706 ft | 511 kts | 72° |
| 2026-05-04 22:35 | 40.58517 | -86.16878 | 34533 ft | 507 kts | 73° |
| 2026-05-04 22:35 | 40.59415 | -86.12434 | 34631 ft | 498 kts | 74° |
| 2026-05-04 22:36 | 40.61199 | -86.03608 | 34733 ft | 502 kts | 73° |
| 2026-05-04 22:36 | 40.62979 | -85.94752 | 34734 ft | 503 kts | 74° |
| 2026-05-04 22:37 | 40.64762 | -85.85860 | 34845 ft | 501 kts | 74° |
| 2026-05-04 22:37 | 40.66535 | -85.76973 | 34748 ft | 503 kts | 74° |
| 2026-05-04 22:38 | 40.68285 | -85.68160 | 34747 ft | 504 kts | 74° |
| 2026-05-04 22:38 | 40.70050 | -85.59238 | 34725 ft | 503 kts | 74° |
| 2026-05-04 22:39 | 40.71809 | -85.50301 | 34726 ft | 503 kts | 74° |
| 2026-05-04 22:39 | 40.73551 | -85.41418 | 34723 ft | 505 kts | 74° |
| 2026-05-04 22:40 | 40.75305 | -85.32432 | 34710 ft | 504 kts | 74° |
| 2026-05-04 22:40 | 40.77008 | -85.23664 | 34718 ft | 504 kts | 74° |
| 2026-05-04 22:41 | 40.78725 | -85.14791 | 34709 ft | 504 kts | 74° |
| 2026-05-04 22:41 | 40.80441 | -85.05877 | 34713 ft | 504 kts | 74° |
| 2026-05-04 22:42 | 40.82161 | -84.96901 | 34721 ft | 503 kts | 74° |
| 2026-05-04 22:42 | 40.83874 | -84.87927 | 34726 ft | 503 kts | 74° |
| 2026-05-04 22:43 | 40.85572 | -84.78989 | 34724 ft | 504 kts | 74° |
| 2026-05-04 22:43 | 40.87259 | -84.70060 | 34725 ft | 504 kts | 74° |
| 2026-05-04 22:44 | 40.88950 | -84.61080 | 34722 ft | 503 kts | 74° |
| 2026-05-04 22:44 | 40.90636 | -84.52076 | 34718 ft | 504 kts | 74° |
| 2026-05-04 22:45 | 40.92316 | -84.43071 | 34721 ft | 504 kts | 75° |
| 2026-05-04 22:45 | 40.94808 | -84.29625 | 34711 ft | 503 kts | 75° |
| 2026-05-04 22:46 | 40.96188 | -84.20563 | 34732 ft | 504 kts | 83° |
| 2026-05-04 22:46 | 40.96405 | -84.11284 | 34736 ft | 506 kts | 91° |
| 2026-05-04 22:47 | 40.96238 | -84.02041 | 34723 ft | 505 kts | 91° |
| 2026-05-04 22:47 | 40.96044 | -83.92764 | 34714 ft | 503 kts | 91° |
| 2026-05-04 22:48 | 40.95855 | -83.83636 | 34717 ft | 504 kts | 91° |
| 2026-05-04 22:48 | 40.95656 | -83.74372 | 34700 ft | 503 kts | 91° |
| 2026-05-04 22:49 | 40.95449 | -83.65128 | 34704 ft | 502 kts | 91° |
| 2026-05-04 22:49 | 40.95237 | -83.55937 | 34702 ft | 502 kts | 91° |
| 2026-05-04 22:50 | 40.95017 | -83.46710 | 34713 ft | 502 kts | 91° |
| 2026-05-04 22:50 | 40.94791 | -83.37573 | 34713 ft | 502 kts | 91° |
| 2026-05-04 22:51 | 40.94557 | -83.28353 | 34724 ft | 501 kts | 91° |
| 2026-05-04 22:51 | 40.94315 | -83.19152 | 34734 ft | 501 kts | 92° |
| 2026-05-04 22:52 | 40.94067 | -83.09983 | 34745 ft | 501 kts | 92° |
| 2026-05-04 22:52 | 40.93810 | -83.00789 | 34745 ft | 500 kts | 92° |
| 2026-05-04 22:53 | 40.93546 | -82.91584 | 34746 ft | 500 kts | 92° |
| 2026-05-04 22:53 | 40.93283 | -82.82646 | 34747 ft | 501 kts | 92° |
| 2026-05-04 22:54 | 40.93005 | -82.73458 | 34764 ft | 499 kts | 92° |
| 2026-05-04 22:54 | 40.92723 | -82.64346 | 34761 ft | 498 kts | 92° |
| 2026-05-04 22:55 | 40.92431 | -82.55172 | 34774 ft | 499 kts | 92° |
| 2026-05-04 22:55 | 40.92131 | -82.46018 | 34768 ft | 499 kts | 92° |
| 2026-05-04 22:56 | 40.91822 | -82.36836 | 34987 ft | 509 kts | 91° |
| 2026-05-04 22:56 | 40.91669 | -82.32115 | 34876 ft | 518 kts | 91° |
| 2026-05-04 22:56 | 40.91505 | -82.27342 | 34837 ft | 522 kts | 91° |
| 2026-05-04 22:57 | 40.91166 | -82.17704 | 34799 ft | 525 kts | 91° |
| 2026-05-04 22:57 | 40.90823 | -82.08117 | 34783 ft | 525 kts | 91° |
| 2026-05-04 22:58 | 40.90471 | -81.98472 | 34781 ft | 525 kts | 91° |
| 2026-05-04 22:58 | 40.90113 | -81.88914 | 34776 ft | 527 kts | 91° |
| 2026-05-04 22:59 | 40.89741 | -81.79192 | 34789 ft | 527 kts | 91° |
| 2026-05-04 22:59 | 40.89656 | -81.69603 | 34802 ft | 523 kts | 82° |
| 2026-05-04 23:00 | 40.90920 | -81.60171 | 34811 ft | 520 kts | 72° |
| 2026-05-04 23:00 | 40.92623 | -81.50827 | 34776 ft | 522 kts | 72° |
| 2026-05-04 23:01 | 40.94319 | -81.41572 | 34775 ft | 520 kts | 73° |
| 2026-05-04 23:01 | 40.96008 | -81.32257 | 34776 ft | 521 kts | 73° |
| 2026-05-04 23:02 | 40.97693 | -81.22910 | 34780 ft | 521 kts | 73° |
| 2026-05-04 23:02 | 40.99367 | -81.13584 | 34780 ft | 519 kts | 73° |
| 2026-05-04 23:03 | 41.01033 | -81.04261 | 34781 ft | 520 kts | 73° |
| 2026-05-04 23:03 | 41.02670 | -80.95041 | 34787 ft | 520 kts | 73° |
| 2026-05-04 23:04 | 41.04312 | -80.85777 | 34784 ft | 519 kts | 73° |
| 2026-05-04 23:04 | 41.05951 | -80.76443 | 34792 ft | 519 kts | 73° |
| 2026-05-04 23:05 | 41.07582 | -80.67128 | 34783 ft | 519 kts | 73° |
| 2026-05-04 23:05 | 41.09204 | -80.57805 | 34805 ft | 518 kts | 73° |
| 2026-05-04 23:06 | 41.10807 | -80.48563 | 34803 ft | 517 kts | 74° |
| 2026-05-04 23:06 | 41.12411 | -80.39255 | 34813 ft | 517 kts | 74° |
| 2026-05-04 23:07 | 41.14008 | -80.29939 | 34806 ft | 517 kts | 74° |
| 2026-05-04 23:07 | 41.15595 | -80.20636 | 34812 ft | 515 kts | 74° |
| 2026-05-04 23:08 | 41.17173 | -80.11342 | 34807 ft | 516 kts | 74° |
| 2026-05-04 23:08 | 41.18739 | -80.02061 | 34820 ft | 516 kts | 74° |
| 2026-05-04 23:09 | 41.20292 | -79.92812 | 34805 ft | 515 kts | 74° |
| 2026-05-04 23:09 | 41.21842 | -79.83532 | 34808 ft | 514 kts | 74° |
| 2026-05-04 23:10 | 41.23387 | -79.74238 | 34801 ft | 515 kts | 74° |
| 2026-05-04 23:10 | 41.24924 | -79.64935 | 34810 ft | 515 kts | 75° |
| 2026-05-04 23:11 | 41.26444 | -79.55696 | 34799 ft | 514 kts | 75° |
| 2026-05-04 23:11 | 41.27962 | -79.46413 | 34803 ft | 514 kts | 75° |
| 2026-05-04 23:12 | 41.29476 | -79.37107 | 34807 ft | 515 kts | 75° |
| 2026-05-04 23:12 | 41.30973 | -79.27847 | 34795 ft | 514 kts | 75° |
| 2026-05-04 23:13 | 41.32467 | -79.18565 | 34803 ft | 513 kts | 75° |
| 2026-05-04 23:13 | 41.33954 | -79.09266 | 34804 ft | 513 kts | 75° |
| 2026-05-04 23:14 | 41.35431 | -78.99992 | 34803 ft | 512 kts | 75° |
| 2026-05-04 23:14 | 41.36901 | -78.90697 | 34805 ft | 512 kts | 75° |
| 2026-05-04 23:15 | 41.38365 | -78.81402 | 34811 ft | 512 kts | 76° |
| 2026-05-04 23:15 | 41.39807 | -78.72182 | 34807 ft | 511 kts | 76° |
| 2026-05-04 23:16 | 41.40532 | -78.67537 | 34432 ft | 507 kts | 76° |
| 2026-05-04 23:16 | 41.41225 | -78.63060 | 34643 ft | 484 kts | 75° |
| 2026-05-04 23:16 | 41.42351 | -78.55827 | 34764 ft | 483 kts | 75° |
| 2026-05-04 23:17 | 41.43036 | -78.51382 | 34800 ft | 494 kts | 76° |
| 2026-05-04 23:17 | 41.43729 | -78.46864 | 34805 ft | 498 kts | 76° |
| 2026-05-04 23:17 | 41.45100 | -78.37921 | 34385 ft | 476 kts | 76° |
| 2026-05-04 23:18 | 41.45744 | -78.33702 | 32650 ft | 482 kts | 75° |
| 2026-05-04 23:18 | 41.46422 | -78.29274 | 32779 ft | 482 kts | 76° |
| 2026-05-04 23:18 | 41.47775 | -78.20338 | 32828 ft | 497 kts | 76° |
| 2026-05-04 23:19 | 41.49129 | -78.11344 | 32805 ft | 493 kts | 76° |
| 2026-05-04 23:19 | 41.50477 | -78.02360 | 32798 ft | 494 kts | 77° |
| 2026-05-04 23:20 | 41.50758 | -77.97775 | 32827 ft | 498 kts | 89° |
| 2026-05-04 23:20 | 41.50600 | -77.93213 | 32824 ft | 500 kts | 92° |
| 2026-05-04 23:20 | 41.49446 | -77.84057 | 32809 ft | 501 kts | 99° |
| 2026-05-04 23:21 | 41.48159 | -77.74925 | 32799 ft | 501 kts | 99° |
| 2026-05-04 23:21 | 41.46857 | -77.65800 | 32795 ft | 499 kts | 99° |
| 2026-05-04 23:22 | 41.45555 | -77.56741 | 32772 ft | 500 kts | 99° |
| 2026-05-04 23:22 | 41.44900 | -77.52184 | 32368 ft | 501 kts | 99° |
| 2026-05-04 23:22 | 41.44240 | -77.47624 | 31625 ft | 501 kts | 99° |
| 2026-05-04 23:23 | 41.43577 | -77.43051 | 30698 ft | 502 kts | 100° |
| 2026-05-04 23:23 | 41.42910 | -77.38462 | 29415 ft | 507 kts | 100° |
| 2026-05-04 23:23 | 41.42237 | -77.33863 | 28486 ft | 501 kts | 100° |
| 2026-05-04 23:23 | 41.41576 | -77.29342 | 27597 ft | 495 kts | 100° |
| 2026-05-04 23:24 | 41.40928 | -77.24911 | 26685 ft | 490 kts | 101° |
| 2026-05-04 23:24 | 41.40282 | -77.20533 | 25797 ft | 484 kts | 101° |
| 2026-05-04 23:24 | 41.39637 | -77.16154 | 24921 ft | 479 kts | 101° |
| 2026-05-04 23:24 | 41.38998 | -77.11828 | 24059 ft | 474 kts | 101° |
| 2026-05-04 23:25 | 41.38360 | -77.07539 | 23180 ft | 469 kts | 101° |
| 2026-05-04 23:25 | 41.37732 | -77.03301 | 22205 ft | 463 kts | 101° |
| 2026-05-04 23:25 | 41.37110 | -76.99122 | 21271 ft | 458 kts | 101° |
| 2026-05-04 23:25 | 41.36489 | -76.94985 | 20371 ft | 452 kts | 101° |
| 2026-05-04 23:26 | 41.35876 | -76.90898 | 19456 ft | 447 kts | 101° |
| 2026-05-04 23:26 | 41.35284 | -76.86942 | 18604 ft | 441 kts | 102° |
| 2026-05-04 23:26 | 41.34690 | -76.83011 | 17674 ft | 437 kts | 102° |
| 2026-05-04 23:26 | 41.34044 | -76.79103 | 17172 ft | 421 kts | 104° |
| 2026-05-04 23:27 | 41.33338 | -76.75445 | 17149 ft | 397 kts | 110° |
| 2026-05-04 23:27 | 41.32427 | -76.72058 | 17113 ft | 381 kts | 112° |
| 2026-05-04 23:27 | 41.31527 | -76.68770 | 17129 ft | 376 kts | 111° |
| 2026-05-04 23:27 | 41.30674 | -76.65546 | 17843 ft | 363 kts | 111° |
| 2026-05-04 23:28 | 41.29865 | -76.62500 | 18320 ft | 339 kts | 111° |
| 2026-05-04 23:28 | 41.29060 | -76.59517 | 18561 ft | 347 kts | 111° |
| 2026-05-04 23:28 | 41.28233 | -76.56444 | 18698 ft | 355 kts | 111° |
| 2026-05-04 23:28 | 41.27410 | -76.53360 | 18755 ft | 354 kts | 111° |
| 2026-05-04 23:29 | 41.26585 | -76.50282 | 18771 ft | 352 kts | 111° |
| 2026-05-04 23:29 | 41.25758 | -76.47217 | 18780 ft | 352 kts | 111° |
| 2026-05-04 23:29 | 41.24933 | -76.44156 | 18796 ft | 352 kts | 111° |
| 2026-05-04 23:29 | 41.24116 | -76.41121 | 18805 ft | 353 kts | 111° |
| 2026-05-04 23:30 | 41.23285 | -76.38047 | 18809 ft | 352 kts | 111° |
| 2026-05-04 23:30 | 41.22459 | -76.34990 | 18812 ft | 351 kts | 111° |
| 2026-05-04 23:30 | 41.21632 | -76.31934 | 18824 ft | 351 kts | 111° |
| 2026-05-04 23:30 | 41.20805 | -76.28883 | 18835 ft | 352 kts | 111° |
| 2026-05-04 23:31 | 41.19975 | -76.25821 | 18841 ft | 352 kts | 111° |
| 2026-05-04 23:31 | 41.19146 | -76.22766 | 18848 ft | 352 kts | 111° |
| 2026-05-04 23:31 | 41.18315 | -76.19717 | 18852 ft | 351 kts | 111° |
| 2026-05-04 23:31 | 41.17484 | -76.16669 | 18854 ft | 351 kts | 111° |
| 2026-05-04 23:32 | 41.16652 | -76.13616 | 18861 ft | 352 kts | 111° |
| 2026-05-04 23:32 | 41.15826 | -76.10589 | 18867 ft | 353 kts | 111° |
| 2026-05-04 23:32 | 41.14988 | -76.07522 | 18878 ft | 353 kts | 111° |
| 2026-05-04 23:32 | 41.14150 | -76.04460 | 18880 ft | 352 kts | 111° |
| 2026-05-04 23:33 | 41.13310 | -76.01400 | 18892 ft | 359 kts | 111° |
| 2026-05-04 23:33 | 41.12439 | -75.98231 | 18909 ft | 368 kts | 111° |
| 2026-05-04 23:33 | 41.11564 | -75.95042 | 18883 ft | 366 kts | 111° |
| 2026-05-04 23:33 | 41.10735 | -75.92020 | 18302 ft | 344 kts | 111° |
| 2026-05-04 23:34 | 41.09907 | -75.89020 | 17402 ft | 341 kts | 111° |
| 2026-05-04 23:34 | 41.09100 | -75.86104 | 16529 ft | 339 kts | 111° |
| 2026-05-04 23:34 | 41.08293 | -75.83179 | 15763 ft | 335 kts | 112° |
| 2026-05-04 23:34 | 41.07499 | -75.80303 | 15100 ft | 330 kts | 112° |
| 2026-05-04 23:35 | 41.06712 | -75.77459 | 14444 ft | 326 kts | 112° |
| 2026-05-04 23:35 | 41.05930 | -75.74640 | 13712 ft | 327 kts | 112° |
| 2026-05-04 23:35 | 41.05147 | -75.71819 | 13016 ft | 323 kts | 112° |
| 2026-05-04 23:35 | 41.04388 | -75.69086 | 12526 ft | 316 kts | 112° |
| 2026-05-04 23:36 | 41.03644 | -75.66403 | 12016 ft | 308 kts | 112° |
| 2026-05-04 23:36 | 41.02885 | -75.63688 | 11505 ft | 317 kts | 112° |
| 2026-05-04 23:36 | 41.02126 | -75.60963 | 11349 ft | 312 kts | 112° |
| 2026-05-04 23:36 | 41.01387 | -75.58304 | 11438 ft | 303 kts | 112° |
| 2026-05-04 23:37 | 41.00660 | -75.55699 | 11401 ft | 302 kts | 112° |
| 2026-05-04 23:37 | 40.99926 | -75.53074 | 11213 ft | 306 kts | 112° |
| 2026-05-04 23:37 | 40.99184 | -75.50422 | 11058 ft | 307 kts | 112° |
| 2026-05-04 23:37 | 40.98455 | -75.47812 | 11000 ft | 304 kts | 112° |
| 2026-05-04 23:38 | 40.97725 | -75.45196 | 10982 ft | 301 kts | 112° |
| 2026-05-04 23:38 | 40.96995 | -75.42603 | 10912 ft | 302 kts | 112° |
| 2026-05-04 23:38 | 40.96259 | -75.39984 | 10821 ft | 303 kts | 112° |
| 2026-05-04 23:38 | 40.95530 | -75.37382 | 10749 ft | 297 kts | 111° |
| 2026-05-04 23:39 | 40.94815 | -75.34833 | 9883 ft | 297 kts | 112° |
| 2026-05-04 23:39 | 40.94088 | -75.32249 | 8385 ft | 300 kts | 112° |
| 2026-05-04 23:39 | 40.93364 | -75.29671 | 7411 ft | 301 kts | 113° |
| 2026-05-04 23:39 | 40.92651 | -75.27155 | 7611 ft | 289 kts | 113° |
| 2026-05-04 23:40 | 40.91925 | -75.24608 | 7487 ft | 299 kts | 113° |
| 2026-05-04 23:40 | 40.91219 | -75.22089 | 7127 ft | 288 kts | 114° |
| 2026-05-04 23:40 | 40.90512 | -75.19582 | 7068 ft | 288 kts | 114° |
| 2026-05-04 23:40 | 40.89810 | -75.17116 | 7027 ft | 286 kts | 114° |
| 2026-05-04 23:41 | 40.89102 | -75.14642 | 7016 ft | 288 kts | 114° |
| 2026-05-04 23:41 | 40.88397 | -75.12166 | 7011 ft | 287 kts | 113° |
| 2026-05-04 23:41 | 40.87703 | -75.09682 | 7015 ft | 288 kts | 113° |
| 2026-05-04 23:41 | 40.87019 | -75.07237 | 7011 ft | 286 kts | 114° |
| 2026-05-04 23:42 | 40.86324 | -75.04776 | 6982 ft | 286 kts | 114° |
| 2026-05-04 23:42 | 40.85622 | -75.02308 | 7003 ft | 287 kts | 113° |
| 2026-05-04 23:42 | 40.84925 | -74.99840 | 7006 ft | 286 kts | 113° |
| 2026-05-04 23:42 | 40.84238 | -74.97408 | 7008 ft | 286 kts | 113° |
| 2026-05-04 23:43 | 40.83501 | -74.94930 | 7010 ft | 287 kts | 113° |
| 2026-05-04 23:43 | 40.83108 | -74.92487 | 6308 ft | 278 kts | 89° |
| 2026-05-04 23:43 | 40.83346 | -74.89835 | 5349 ft | 294 kts | 80° |
| 2026-05-04 23:43 | 40.83743 | -74.87338 | 6044 ft | 274 kts | 78° |
| 2026-05-04 23:44 | 40.84183 | -74.84760 | 6249 ft | 297 kts | 78° |
| 2026-05-04 23:44 | 40.84646 | -74.82145 | 6098 ft | 288 kts | 77° |
| 2026-05-04 23:44 | 40.85103 | -74.79584 | 6059 ft | 285 kts | 78° |
| 2026-05-04 23:44 | 40.85567 | -74.77031 | 6030 ft | 287 kts | 77° |
| 2026-05-04 23:45 | 40.86032 | -74.74475 | 6018 ft | 286 kts | 77° |
| 2026-05-04 23:45 | 40.86489 | -74.71960 | 6006 ft | 284 kts | 77° |
| 2026-05-04 23:45 | 40.86957 | -74.69370 | 6014 ft | 288 kts | 77° |
| 2026-05-04 23:45 | 40.87416 | -74.66843 | 6015 ft | 284 kts | 77° |
| 2026-05-04 23:46 | 40.87873 | -74.64300 | 5998 ft | 284 kts | 77° |
| 2026-05-04 23:46 | 40.88331 | -74.61749 | 6011 ft | 286 kts | 77° |
| 2026-05-04 23:46 | 40.88789 | -74.59197 | 6008 ft | 284 kts | 77° |
| 2026-05-04 23:46 | 40.89244 | -74.56660 | 5994 ft | 284 kts | 77° |
| 2026-05-04 23:47 | 40.89702 | -74.54113 | 6002 ft | 285 kts | 77° |
| 2026-05-04 23:47 | 40.90162 | -74.51562 | 5995 ft | 284 kts | 77° |
| 2026-05-04 23:47 | 40.90611 | -74.49073 | 5970 ft | 268 kts | 77° |
| 2026-05-04 23:47 | 40.91021 | -74.46802 | 5735 ft | 235 kts | 77° |
| 2026-05-04 23:48 | 40.91427 | -74.44591 | 4824 ft | 258 kts | 78° |
| 2026-05-04 23:48 | 40.91844 | -74.42410 | 4433 ft | 232 kts | 77° |
| 2026-05-04 23:48 | 40.92222 | -74.40494 | 4586 ft | 209 kts | 77° |
| 2026-05-04 23:48 | 40.92592 | -74.38649 | 4612 ft | 211 kts | 78° |
| 2026-05-04 23:49 | 40.92965 | -74.36670 | 4646 ft | 234 kts | 78° |
| 2026-05-04 23:49 | 40.93366 | -74.34605 | 5077 ft | 235 kts | 77° |
| 2026-05-04 23:49 | 40.93809 | -74.32492 | 5350 ft | 237 kts | 76° |
| 2026-05-04 23:49 | 40.94259 | -74.30352 | 5358 ft | 245 kts | 75° |
| 2026-05-04 23:50 | 40.94710 | -74.28200 | 5111 ft | 243 kts | 76° |
| 2026-05-04 23:50 | 40.94997 | -74.26013 | 4718 ft | 237 kts | 95° |
| 2026-05-04 23:50 | 40.94895 | -74.23871 | 4333 ft | 233 kts | 97° |
| 2026-05-04 23:50 | 40.94792 | -74.21719 | 3818 ft | 235 kts | 97° |
| 2026-05-04 23:51 | 40.94680 | -74.19633 | 3661 ft | 220 kts | 98° |
| 2026-05-04 23:51 | 40.94569 | -74.17662 | 3729 ft | 202 kts | 98° |
| 2026-05-04 23:51 | 40.94468 | -74.15829 | 3826 ft | 208 kts | 98° |
| 2026-05-04 23:51 | 40.94296 | -74.13931 | 3834 ft | 207 kts | 108° |
| 2026-05-04 23:52 | 40.93831 | -74.12140 | 3648 ft | 205 kts | 120° |
| 2026-05-04 23:52 | 40.93104 | -74.10542 | 3299 ft | 200 kts | 132° |
| 2026-05-04 23:52 | 40.92181 | -74.09229 | 2961 ft | 188 kts | 148° |
| 2026-05-04 23:52 | 40.91177 | -74.08245 | 2752 ft | 174 kts | 153° |
| 2026-05-04 23:53 | 40.90200 | -74.07380 | 2450 ft | 164 kts | 154° |
| 2026-05-04 23:53 | 40.89248 | -74.06598 | 2185 ft | 158 kts | 156° |
| 2026-05-04 23:53 | 40.88286 | -74.05931 | 1949 ft | 155 kts | 165° |
| 2026-05-04 23:53 | 40.87239 | -74.05806 | 1594 ft | 150 kts | 197° |
| 2026-05-04 23:54 | 40.86288 | -74.06224 | 1491 ft | 139 kts | 204° |
| 2026-05-04 23:54 | 40.85388 | -74.06667 | 1703 ft | 139 kts | 205° |
| 2026-05-04 23:54 | 40.84476 | -74.07158 | 2183 ft | 145 kts | 205° |
| 2026-05-04 23:54 | 40.83572 | -74.07647 | 2690 ft | 140 kts | 206° |
| 2026-05-04 23:55 | 40.82700 | -74.08132 | 2887 ft | 143 kts | 206° |
| 2026-05-04 23:55 | 40.81806 | -74.08617 | 2851 ft | 133 kts | 202° |
| 2026-05-04 23:55 | 40.79898 | -74.08862 | 2441 ft | 140 kts | 188° |
| 2026-05-04 23:56 | 40.78948 | -74.08926 | 2199 ft | 135 kts | 186° |
| 2026-05-04 23:56 | 40.78026 | -74.08669 | 1916 ft | 140 kts | 165° |
| 2026-05-04 23:56 | 40.77153 | -74.08084 | 1688 ft | 138 kts | 156° |
| 2026-05-04 23:56 | 40.76316 | -74.07422 | 1507 ft | 144 kts | 157° |
| 2026-05-04 23:57 | 40.75417 | -74.06903 | 1282 ft | 138 kts | 167° |
| 2026-05-04 23:57 | 40.74491 | -74.06558 | 1082 ft | 136 kts | 174° |
| 2026-05-04 23:57 | 40.73562 | -74.06344 | 899 ft | 136 kts | 175° |
| 2026-05-04 23:57 | 40.72625 | -74.06132 | 900 ft | 139 kts | 171° |
| 2026-05-04 23:58 | 40.71693 | -74.06258 | 907 ft | 133 kts | 212° |
| 2026-05-04 23:58 | 40.71150 | -74.07224 | 977 ft | 136 kts | 240° |
| 2026-05-04 23:58 | 40.70721 | -74.08342 | 1026 ft | 134 kts | 240° |
| 2026-05-04 23:58 | 40.70298 | -74.09469 | 914 ft | 139 kts | 240° |
| 2026-05-04 23:59 | 40.69929 | -74.10604 | 815 ft | 133 kts | 255° |
| 2026-05-04 23:59 | 40.69869 | -74.11798 | 608 ft | 135 kts | 265° |
| 2026-05-04 23:59 | 40.69937 | -74.13036 | 459 ft | 139 kts | 268° |
| 2026-05-04 23:59 | 40.70046 | -74.14355 | 314 ft | 147 kts | 270° |
| 2026-05-05 00:00 | 40.70126 | -74.15601 | 88 ft | 128 kts | 266° |
| 2026-05-05 00:00 | 40.70148 | -74.15983 | 42 ft | 118 kts | 265° |
| 2026-05-05 00:00 | 40.70204 | -74.16967 | 30 ft | 26 kts | 269° |
| 2026-05-05 00:00 | 40.70175 | -74.17135 | 30 ft | 12 kts | 248° |
| 2026-05-05 00:01 | 40.70149 | -74.17214 | 30 ft | 7 kts | 245° |
| 2026-05-05 00:01 | 40.70148 | -74.17216 | 30 ft | 0 kts | 245° |
| 2026-05-05 00:02 | 40.70148 | -74.17217 | 30 ft | 1 kts | 245° |
| 2026-05-05 00:02 | 40.70142 | -74.17235 | 30 ft | 3 kts | 245° |
| 2026-05-05 00:02 | 40.70134 | -74.17258 | 30 ft | 2 kts | 251° |
| 2026-05-05 00:02 | 40.70131 | -74.17272 | 30 ft | 0 kts | 253° |
| 2026-05-05 00:03 | 40.70124 | -74.17294 | 30 ft | 5 kts | 247° |
| 2026-05-05 00:03 | 40.70097 | -74.17350 | 30 ft | 9 kts | 216° |
| 2026-05-05 00:03 | 40.70026 | -74.17374 | 30 ft | 11 kts | 186° |
| 2026-05-05 00:03 | 40.69948 | -74.17381 | 30 ft | 11 kts | 185° |
| 2026-05-05 00:04 | 40.69879 | -74.17380 | 30 ft | 9 kts | 161° |
| 2026-05-05 00:04 | 40.69850 | -74.17354 | 30 ft | 6 kts | 136° |
| 2026-05-05 00:04 | 40.69803 | -74.17287 | 30 ft | 12 kts | 135° |
| 2026-05-05 00:04 | 40.69747 | -74.17241 | 30 ft | 6 kts | 186° |
| 2026-05-05 00:05 | 40.69718 | -74.17259 | 30 ft | 2 kts | 218° |
| 2026-05-05 00:05 | 40.69701 | -74.17292 | 30 ft | 7 kts | 244° |
| 2026-05-05 00:05 | 40.69673 | -74.17331 | 30 ft | 6 kts | 201° |
| 2026-05-05 00:05 | 40.69650 | -74.17325 | 30 ft | 3 kts | 157° |
| 2026-05-05 00:06 | 40.69638 | -74.17319 | 30 ft | 3 kts | 156° |
| 2026-05-05 00:06 | 40.69636 | -74.17317 | 30 ft | 0 kts | 157° |